sensor_id;sensor_type;location;lat;lon;timestamp;pressure;altitude;pressure_sealevel;temperature;humidity
21706;BME280;11014;53.076;18.208;2022-07-19T00:00:35;101823.66;;;27.10;44.62
21706;BME280;11014;53.076;18.208;2022-07-19T00:03:06;101826.91;;;27.12;44.75
21706;BME280;11014;53.076;18.208;2022-07-19T00:05:34;101821.41;;;27.12;44.43
21706;BME280;11014;53.076;18.208;2022-07-19T00:08:03;101826.09;;;27.11;44.75
21706;BME280;11014;53.076;18.208;2022-07-19T00:10:31;101823.03;;;27.13;44.78
21706;BME280;11014;53.076;18.208;2022-07-19T00:13:00;101813.63;;;27.14;44.53
21706;BME280;11014;53.076;18.208;2022-07-19T00:15:28;101817.53;;;27.13;44.65
21706;BME280;11014;53.076;18.208;2022-07-19T00:17:56;101823.84;;;27.13;44.77
21706;BME280;11014;53.076;18.208;2022-07-19T00:20:25;101820.78;;;27.15;44.90
21706;BME280;11014;53.076;18.208;2022-07-19T00:22:53;101819.13;;;27.14;44.62
21706;BME280;11014;53.076;18.208;2022-07-19T00:25:22;101821.88;;;27.14;44.97
21706;BME280;11014;53.076;18.208;2022-07-19T00:27:50;101816.38;;;27.14;44.61
21706;BME280;11014;53.076;18.208;2022-07-19T00:30:18;101807.31;;;27.13;44.75
21706;BME280;11014;53.076;18.208;2022-07-19T00:32:47;101815.59;;;27.13;44.62
21706;BME280;11014;53.076;18.208;2022-07-19T00:35:15;101819.13;;;27.14;44.88
21706;BME280;11014;53.076;18.208;2022-07-19T00:37:43;101812.00;;;27.13;44.78
21706;BME280;11014;53.076;18.208;2022-07-19T00:40:21;101806.50;;;27.13;44.66
21706;BME280;11014;53.076;18.208;2022-07-19T00:42:51;101803.41;;;27.14;44.61
21706;BME280;11014;53.076;18.208;2022-07-19T00:45:20;101814.75;;;27.13;44.86
21706;BME280;11014;53.076;18.208;2022-07-19T00:47:49;101802.59;;;27.14;44.77
21706;BME280;11014;53.076;18.208;2022-07-19T00:50:18;101795.44;;;27.13;45.02
21706;BME280;11014;53.076;18.208;2022-07-19T00:52:53;101808.09;;;27.14;44.80
21706;BME280;11014;53.076;18.208;2022-07-19T00:55:23;101803.41;;;27.14;44.93
21706;BME280;11014;53.076;18.208;2022-07-19T00:57:51;101802.59;;;27.14;44.60
21706;BME280;11014;53.076;18.208;2022-07-19T01:00:20;101797.06;;;27.14;45.04
21706;BME280;11014;53.076;18.208;2022-07-19T01:02:51;101804.22;;;27.15;44.70
21706;BME280;11014;53.076;18.208;2022-07-19T01:05:19;101799.03;;;27.13;44.98
21706;BME280;11014;53.076;18.208;2022-07-19T01:07:48;101804.22;;;27.15;44.66
21706;BME280;11014;53.076;18.208;2022-07-19T01:10:17;101799.81;;;27.14;44.87
21706;BME280;11014;53.076;18.208;2022-07-19T01:12:46;101810.56;;;27.15;45.00
21706;BME280;11014;53.076;18.208;2022-07-19T01:15:17;101800.66;;;27.14;44.81
21706;BME280;11014;53.076;18.208;2022-07-19T01:17:46;101804.78;;;27.25;44.48
21706;BME280;11014;53.076;18.208;2022-07-19T01:20:16;101805.88;;;27.16;44.54
21706;BME280;11014;53.076;18.208;2022-07-19T01:22:45;101810.38;;;27.12;44.53
21706;BME280;11014;53.076;18.208;2022-07-19T01:25:15;101803.19;;;27.11;44.95
21706;BME280;11014;53.076;18.208;2022-07-19T01:27:46;101802.41;;;27.10;44.65
21706;BME280;11014;53.076;18.208;2022-07-19T01:30:22;101798.84;;;27.10;44.68
21706;BME280;11014;53.076;18.208;2022-07-19T01:32:52;101792.16;;;27.11;44.63
21706;BME280;11014;53.076;18.208;2022-07-19T01:35:21;101793.00;;;27.11;44.92
21706;BME280;11014;53.076;18.208;2022-07-19T01:37:50;101793.00;;;27.11;44.71
21706;BME280;11014;53.076;18.208;2022-07-19T01:40:19;101793.81;;;27.12;44.64
21706;BME280;11014;53.076;18.208;2022-07-19T01:42:48;101794.63;;;27.12;44.82
21706;BME280;11014;53.076;18.208;2022-07-19T01:45:18;101795.44;;;27.13;44.88
21706;BME280;11014;53.076;18.208;2022-07-19T01:47:49;101789.13;;;27.12;44.83
21706;BME280;11014;53.076;18.208;2022-07-19T01:50:19;101792.69;;;27.13;44.73
21706;BME280;11014;53.076;18.208;2022-07-19T01:52:48;101788.78;;;27.14;44.62
21706;BME280;11014;53.076;18.208;2022-07-19T01:55:20;101786.84;;;27.14;44.71
21706;BME280;11014;53.076;18.208;2022-07-19T01:57:49;101783.28;;;27.14;44.86
21706;BME280;11014;53.076;18.208;2022-07-19T02:00:18;101780.50;;;27.14;44.54
21706;BME280;11014;53.076;18.208;2022-07-19T02:02:47;101779.72;;;27.13;44.59
21706;BME280;11014;53.076;18.208;2022-07-19T02:05:15;101777.75;;;27.14;44.67
21706;BME280;11014;53.076;18.208;2022-07-19T02:07:47;101776.63;;;27.15;44.69
21706;BME280;11014;53.076;18.208;2022-07-19T02:10:17;101775.00;;;27.14;44.56
21706;BME280;11014;53.076;18.208;2022-07-19T02:12:46;101775.00;;;27.14;44.70
21706;BME280;11014;53.076;18.208;2022-07-19T02:15:15;101782.16;;;27.15;44.54
21706;BME280;11014;53.076;18.208;2022-07-19T02:17:44;101781.34;;;27.14;44.60
21706;BME280;11014;53.076;18.208;2022-07-19T02:20:12;101780.50;;;27.14;44.72
21706;BME280;11014;53.076;18.208;2022-07-19T02:22:41;101781.34;;;27.14;44.54
21706;BME280;11014;53.076;18.208;2022-07-19T02:25:10;101775.00;;;27.14;44.48
21706;BME280;11014;53.076;18.208;2022-07-19T02:27:40;101770.09;;;27.11;44.74
21706;BME280;11014;53.076;18.208;2022-07-19T02:30:10;101767.06;;;27.12;44.77
21706;BME280;11014;53.076;18.208;2022-07-19T02:32:44;101774.22;;;27.13;44.49
21706;BME280;11014;53.076;18.208;2022-07-19T02:35:12;101772.25;;;27.14;44.84
21706;BME280;11014;53.076;18.208;2022-07-19T02:37:41;101775.00;;;27.14;44.83
21706;BME280;11014;53.076;18.208;2022-07-19T02:40:10;101783.28;;;27.14;44.72
21706;BME280;11014;53.076;18.208;2022-07-19T02:42:39;101783.28;;;27.14;44.48
21706;BME280;11014;53.076;18.208;2022-07-19T02:45:08;101776.63;;;27.15;44.59
21706;BME280;11014;53.076;18.208;2022-07-19T02:47:36;101776.63;;;27.15;44.44
21706;BME280;11014;53.076;18.208;2022-07-19T02:50:07;101776.63;;;27.15;44.43
21706;BME280;11014;53.076;18.208;2022-07-19T02:52:36;101781.34;;;27.14;44.64
21706;BME280;11014;53.076;18.208;2022-07-19T02:55:05;101779.41;;;27.15;44.58
21706;BME280;11014;53.076;18.208;2022-07-19T02:57:34;101787.69;;;27.15;44.50
21706;BME280;11014;53.076;18.208;2022-07-19T03:00:04;101776.63;;;27.15;44.43
21706;BME280;11014;53.076;18.208;2022-07-19T03:02:35;101786.84;;;27.14;44.50
21706;BME280;11014;53.076;18.208;2022-07-19T03:05:04;101780.50;;;27.14;44.78
21706;BME280;11014;53.076;18.208;2022-07-19T03:07:33;101783.81;;;27.16;44.81
21706;BME280;11014;53.076;18.208;2022-07-19T03:10:01;101786.56;;;27.16;44.49
21706;BME280;11014;53.076;18.208;2022-07-19T03:12:30;101783.81;;;27.16;44.42
21706;BME280;11014;53.076;18.208;2022-07-19T03:14:59;101775.53;;;27.16;44.44
21706;BME280;11014;53.076;18.208;2022-07-19T03:17:27;101782.16;;;27.15;44.54
21706;BME280;11014;53.076;18.208;2022-07-19T03:19:56;101782.16;;;27.15;44.55
21706;BME280;11014;53.076;18.208;2022-07-19T03:22:24;101779.41;;;27.15;44.66
21706;BME280;11014;53.076;18.208;2022-07-19T03:24:52;101784.09;;;27.14;44.75
21706;BME280;11014;53.076;18.208;2022-07-19T03:27:21;101775.81;;;27.14;44.79
21706;BME280;11014;53.076;18.208;2022-07-19T03:29:49;101779.41;;;27.15;44.74
21706;BME280;11014;53.076;18.208;2022-07-19T03:32:18;101778.28;;;27.16;44.67
21706;BME280;11014;53.076;18.208;2022-07-19T03:34:46;101780.50;;;27.14;44.65
21706;BME280;11014;53.076;18.208;2022-07-19T03:37:14;101780.72;;;27.17;44.40
21706;BME280;11014;53.076;18.208;2022-07-19T03:39:43;101781.03;;;27.16;44.61
21706;BME280;11014;53.076;18.208;2022-07-19T03:42:11;101778.28;;;27.16;44.62
21706;BME280;11014;53.076;18.208;2022-07-19T03:44:39;101775.53;;;27.16;44.61
21706;BME280;11014;53.076;18.208;2022-07-19T03:47:08;101771.13;;;27.15;44.49
21706;BME280;11014;53.076;18.208;2022-07-19T03:49:36;101776.31;;;27.16;44.46
21706;BME280;11014;53.076;18.208;2022-07-19T03:52:05;101773.56;;;27.16;44.32
21706;BME280;11014;53.076;18.208;2022-07-19T03:54:33;101777.13;;;27.17;44.47
21706;BME280;11014;53.076;18.208;2022-07-19T03:57:01;101775.00;;;27.14;44.59
21706;BME280;11014;53.076;18.208;2022-07-19T03:59:29;101770.31;;;27.14;44.49
21706;BME280;11014;53.076;18.208;2022-07-19T04:01:58;101779.06;;;27.16;44.45
21706;BME280;11014;53.076;18.208;2022-07-19T04:04:27;101765.59;;;27.15;44.45
21706;BME280;11014;53.076;18.208;2022-07-19T04:06:55;101772.75;;;27.16;44.62
21706;BME280;11014;53.076;18.208;2022-07-19T04:09:23;101767.53;;;27.14;44.45
21706;BME280;11014;53.076;18.208;2022-07-19T04:11:52;101768.38;;;27.15;44.46
21706;BME280;11014;53.076;18.208;2022-07-19T04:14:20;101773.56;;;27.16;44.42
21706;BME280;11014;53.076;18.208;2022-07-19T04:16:48;101765.59;;;27.15;44.84
21706;BME280;11014;53.076;18.208;2022-07-19T04:19:17;101764.16;;;27.17;44.71
21706;BME280;11014;53.076;18.208;2022-07-19T04:21:45;101759.47;;;27.18;44.87
21706;BME280;11014;53.076;18.208;2022-07-19T04:24:13;101758.66;;;27.17;44.96
21706;BME280;11014;53.076;18.208;2022-07-19T04:26:42;101763.34;;;27.17;44.77
21706;BME280;11014;53.076;18.208;2022-07-19T04:29:10;101759.47;;;27.18;44.83
21706;BME280;11014;53.076;18.208;2022-07-19T04:31:38;101764.97;;;27.18;44.87
21706;BME280;11014;53.076;18.208;2022-07-19T04:34:08;101766.59;;;27.19;44.81
21706;BME280;11014;53.076;18.208;2022-07-19T04:36:36;101762.72;;;27.20;45.20
21706;BME280;11014;53.076;18.208;2022-07-19T04:39:04;101769.06;;;27.20;44.97
21706;BME280;11014;53.076;18.208;2022-07-19T04:41:32;101773.75;;;27.20;45.19
21706;BME280;11014;53.076;18.208;2022-07-19T04:44:01;101780.91;;;27.21;44.87
21706;BME280;11014;53.076;18.208;2022-07-19T04:46:29;101779.28;;;27.20;45.00
21706;BME280;11014;53.076;18.208;2022-07-19T04:48:58;101780.09;;;27.20;44.74
21706;BME280;11014;53.076;18.208;2022-07-19T04:51:27;101779.28;;;27.20;44.80
21706;BME280;11014;53.076;18.208;2022-07-19T04:53:55;101768.22;;;27.20;44.77
21706;BME280;11014;53.076;18.208;2022-07-19T04:56:24;101776.50;;;27.20;44.45
21706;BME280;11014;53.076;18.208;2022-07-19T04:58:52;101776.50;;;27.20;44.80
21706;BME280;11014;53.076;18.208;2022-07-19T05:01:20;101774.56;;;27.20;44.36
21706;BME280;11014;53.076;18.208;2022-07-19T05:03:49;101769.34;;;27.19;44.70
21706;BME280;11014;53.076;18.208;2022-07-19T05:06:17;101775.38;;;27.21;44.63
21706;BME280;11014;53.076;18.208;2022-07-19T05:08:45;101779.28;;;27.20;44.60
21706;BME280;11014;53.076;18.208;2022-07-19T05:11:14;101765.47;;;27.20;44.36
21706;BME280;11014;53.076;18.208;2022-07-19T05:13:42;101768.22;;;27.20;44.37
21706;BME280;11014;53.076;18.208;2022-07-19T05:16:11;101766.59;;;27.19;44.05
21706;BME280;11014;53.076;18.208;2022-07-19T05:18:39;101767.41;;;27.19;44.35
21706;BME280;11014;53.076;18.208;2022-07-19T05:21:09;101763.53;;;27.20;44.25
21706;BME280;11014;53.076;18.208;2022-07-19T05:23:39;101758.31;;;27.19;44.05
21706;BME280;11014;53.076;18.208;2022-07-19T05:26:07;101758.31;;;27.19;44.07
21706;BME280;11014;53.076;18.208;2022-07-19T05:28:36;101759.97;;;27.20;44.29
21706;BME280;11014;53.076;18.208;2022-07-19T05:31:04;101758.31;;;27.19;43.89
21706;BME280;11014;53.076;18.208;2022-07-19T05:33:33;101754.78;;;27.18;43.80
21706;BME280;11014;53.076;18.208;2022-07-19T05:36:01;101755.56;;;27.19;44.08
21706;BME280;11014;53.076;18.208;2022-07-19T05:38:30;101758.03;;;27.20;43.89
21706;BME280;11014;53.076;18.208;2022-07-19T05:41:03;101758.31;;;27.19;43.82
21706;BME280;11014;53.076;18.208;2022-07-19T05:43:31;101755.56;;;27.19;44.08
21706;BME280;11014;53.076;18.208;2022-07-19T05:45:59;101751.69;;;27.20;43.65
21706;BME280;11014;53.076;18.208;2022-07-19T05:48:28;101755.56;;;27.19;43.99
21706;BME280;11014;53.076;18.208;2022-07-19T05:50:57;101752.50;;;27.20;44.03
21706;BME280;11014;53.076;18.208;2022-07-19T05:53:26;101752.50;;;27.20;43.67
21706;BME280;11014;53.076;18.208;2022-07-19T05:55:55;101751.69;;;27.20;43.67
21706;BME280;11014;53.076;18.208;2022-07-19T05:58:23;101757.19;;;27.20;43.65
21706;BME280;11014;53.076;18.208;2022-07-19T06:00:58;101756.09;;;27.21;43.70
21706;BME280;11014;53.076;18.208;2022-07-19T06:03:51;101762.72;;;27.20;43.53
21706;BME280;11014;53.076;18.208;2022-07-19T06:06:32;101757.19;;;27.20;43.53
21706;BME280;11014;53.076;18.208;2022-07-19T06:09:01;101754.78;;;27.18;43.52
21706;BME280;11014;53.076;18.208;2022-07-19T06:11:30;101748.44;;;27.18;43.51
21706;BME280;11014;53.076;18.208;2022-07-19T06:13:59;101751.19;;;27.18;43.44
21706;BME280;11014;53.076;18.208;2022-07-19T06:16:28;101758.31;;;27.19;43.44
21706;BME280;11014;53.076;18.208;2022-07-19T06:18:56;101761.06;;;27.19;43.53
21706;BME280;11014;53.076;18.208;2022-07-19T06:21:25;101753.94;;;27.18;43.55
21706;BME280;11014;53.076;18.208;2022-07-19T06:23:53;101752.78;;;27.19;43.37
21706;BME280;11014;53.076;18.208;2022-07-19T06:26:21;101742.91;;;27.18;43.26
21706;BME280;11014;53.076;18.208;2022-07-19T06:28:50;101753.94;;;27.18;43.44
21706;BME280;11014;53.076;18.208;2022-07-19T06:31:18;101744.53;;;27.19;43.42
21706;BME280;11014;53.076;18.208;2022-07-19T06:33:48;101742.91;;;27.18;43.24
21706;BME280;11014;53.076;18.208;2022-07-19T06:36:18;101744.53;;;27.19;43.35
21706;BME280;11014;53.076;18.208;2022-07-19T06:38:47;101750.03;;;27.19;43.20
21706;BME280;11014;53.076;18.208;2022-07-19T06:41:16;101744.53;;;27.19;43.16
21706;BME280;11014;53.076;18.208;2022-07-19T06:43:44;101754.44;;;27.20;43.11
21706;BME280;11014;53.076;18.208;2022-07-19T06:46:13;101747.28;;;27.19;43.22
21706;BME280;11014;53.076;18.208;2022-07-19T06:48:41;101757.19;;;27.20;43.11
21706;BME280;11014;53.076;18.208;2022-07-19T06:51:09;101758.03;;;27.20;43.10
21706;BME280;11014;53.076;18.208;2022-07-19T06:53:38;101747.28;;;27.19;42.98
21706;BME280;11014;53.076;18.208;2022-07-19T06:56:06;101751.69;;;27.20;42.91
21706;BME280;11014;53.076;18.208;2022-07-19T06:58:35;101743.41;;;27.20;43.16
21706;BME280;11014;53.076;18.208;2022-07-19T07:01:09;101741.47;;;27.20;42.99
21706;BME280;11014;53.076;18.208;2022-07-19T07:03:38;101742.28;;;27.21;42.93
21706;BME280;11014;53.076;18.208;2022-07-19T07:06:06;101741.47;;;27.20;42.97
21706;BME280;11014;53.076;18.208;2022-07-19T07:08:35;101731.25;;;27.21;43.13
21706;BME280;11014;53.076;18.208;2022-07-19T07:11:03;101733.50;;;27.19;42.81
21706;BME280;11014;53.076;18.208;2022-07-19T07:13:32;101737.88;;;27.20;42.74
21706;BME280;11014;53.076;18.208;2022-07-19T07:16:02;101725.72;;;27.21;43.08
21706;BME280;11014;53.076;18.208;2022-07-19T07:18:30;101729.63;;;27.20;43.13
21706;BME280;11014;53.076;18.208;2022-07-19T07:20:59;101731.25;;;27.21;42.97
21706;BME280;11014;53.076;18.208;2022-07-19T07:23:27;101720.22;;;27.21;42.94
21706;BME280;11014;53.076;18.208;2022-07-19T07:25:56;101720.22;;;27.21;42.64
21706;BME280;11014;53.076;18.208;2022-07-19T07:28:24;101725.72;;;27.21;42.93
21706;BME280;11014;53.076;18.208;2022-07-19T07:30:53;101725.72;;;27.21;42.92
21706;BME280;11014;53.076;18.208;2022-07-19T07:33:22;101716.63;;;27.20;42.71
21706;BME280;11014;53.076;18.208;2022-07-19T07:35:50;101720.22;;;27.21;42.73
21706;BME280;11014;53.076;18.208;2022-07-19T07:38:19;101719.41;;;27.20;42.71
21706;BME280;11014;53.076;18.208;2022-07-19T07:40:48;101731.25;;;27.21;42.67
21706;BME280;11014;53.076;18.208;2022-07-19T07:43:21;101730.44;;;27.20;42.60
21706;BME280;11014;53.076;18.208;2022-07-19T07:45:49;101731.25;;;27.21;42.46
21706;BME280;11014;53.076;18.208;2022-07-19T07:48:17;101727.69;;;27.20;42.74
21706;BME280;11014;53.076;18.208;2022-07-19T07:50:46;101720.22;;;27.21;42.79
21706;BME280;11014;53.076;18.208;2022-07-19T07:53:14;101718.59;;;27.20;42.46
21706;BME280;11014;53.076;18.208;2022-07-19T07:55:43;101711.94;;;27.21;42.42
21706;BME280;11014;53.076;18.208;2022-07-19T07:58:12;101724.09;;;27.20;42.81
21706;BME280;11014;53.076;18.208;2022-07-19T08:00:40;101718.59;;;27.20;42.76
21706;BME280;11014;53.076;18.208;2022-07-19T08:03:09;101729.63;;;27.20;42.82
21706;BME280;11014;53.076;18.208;2022-07-19T08:05:37;101719.69;;;27.19;42.71
21706;BME280;11014;53.076;18.208;2022-07-19T08:08:07;101722.44;;;27.19;42.56
21706;BME280;11014;53.076;18.208;2022-07-19T08:10:36;101725.72;;;27.21;42.68
21706;BME280;11014;53.076;18.208;2022-07-19T08:13:04;101721.66;;;27.18;42.49
21706;BME280;11014;53.076;18.208;2022-07-19T08:15:38;101725.72;;;27.21;42.55
21706;BME280;11014;53.076;18.208;2022-07-19T08:18:07;101726.91;;;27.28;42.38
21706;BME280;11014;53.076;18.208;2022-07-19T08:20:35;101721.03;;;27.21;42.54
21706;BME280;11014;53.076;18.208;2022-07-19T08:23:03;101733.00;;;27.17;42.72
21706;BME280;11014;53.076;18.208;2022-07-19T08:25:32;101721.47;;;27.15;42.62
21706;BME280;11014;53.076;18.208;2022-07-19T08:28:03;101720.34;;;27.16;42.46
21706;BME280;11014;53.076;18.208;2022-07-19T08:30:32;101721.47;;;27.15;42.40
21706;BME280;11014;53.076;18.208;2022-07-19T08:33:20;101719.19;;;27.17;42.39
21706;BME280;11014;53.076;18.208;2022-07-19T08:35:48;101730.25;;;27.17;42.69
21706;BME280;11014;53.076;18.208;2022-07-19T08:38:23;101724.72;;;27.17;42.40
21706;BME280;11014;53.076;18.208;2022-07-19T08:40:52;101719.19;;;27.17;42.27
21706;BME280;11014;53.076;18.208;2022-07-19T08:43:21;101720.84;;;27.18;42.22
21706;BME280;11014;53.076;18.208;2022-07-19T08:45:50;101713.38;;;27.18;42.29
21706;BME280;11014;53.076;18.208;2022-07-19T08:48:20;101710.63;;;27.18;42.54
21706;BME280;11014;53.076;18.208;2022-07-19T08:50:50;101704.28;;;27.18;42.22
21706;BME280;11014;53.076;18.208;2022-07-19T08:53:20;101714.19;;;27.19;42.23
21706;BME280;11014;53.076;18.208;2022-07-19T08:55:48;101713.06;;;27.20;42.11
21706;BME280;11014;53.076;18.208;2022-07-19T08:58:18;101709.19;;;27.21;42.12
21706;BME280;11014;53.076;18.208;2022-07-19T09:00:47;101707.53;;;27.20;42.39
21706;BME280;11014;53.076;18.208;2022-07-19T09:03:15;101706.44;;;27.21;42.19
21706;BME280;11014;53.076;18.208;2022-07-19T09:05:44;101709.19;;;27.21;42.29
21706;BME280;11014;53.076;18.208;2022-07-19T09:08:14;101706.44;;;27.21;42.25
21706;BME280;11014;53.076;18.208;2022-07-19T09:10:48;101702.53;;;27.22;42.25
21706;BME280;11014;53.076;18.208;2022-07-19T09:13:36;101699.75;;;27.22;42.30
21706;BME280;11014;53.076;18.208;2022-07-19T09:16:05;101714.69;;;27.21;42.20
21706;BME280;11014;53.076;18.208;2022-07-19T09:18:35;101710.00;;;27.21;42.09
21706;BME280;11014;53.076;18.208;2022-07-19T09:21:05;101696.50;;;27.20;41.94
21706;BME280;11014;53.076;18.208;2022-07-19T09:23:34;101697.00;;;27.22;42.07
21706;BME280;11014;53.076;18.208;2022-07-19T09:26:04;101696.50;;;27.20;42.33
21706;BME280;11014;53.076;18.208;2022-07-19T09:28:34;101692.31;;;27.22;42.17
21706;BME280;11014;53.076;18.208;2022-07-19T09:31:06;101688.72;;;27.22;42.11
21706;BME280;11014;53.076;18.208;2022-07-19T09:33:39;101688.72;;;27.22;42.00
21706;BME280;11014;53.076;18.208;2022-07-19T09:36:14;101688.72;;;27.22;41.93
21706;BME280;11014;53.076;18.208;2022-07-19T09:38:42;101689.53;;;27.22;41.94
21706;BME280;11014;53.076;18.208;2022-07-19T09:41:14;101694.25;;;27.22;42.26
21706;BME280;11014;53.076;18.208;2022-07-19T09:44:00;101698.63;;;27.23;42.03
21706;BME280;11014;53.076;18.208;2022-07-19T09:46:40;101701.41;;;27.23;42.20
21706;BME280;11014;53.076;18.208;2022-07-19T09:49:16;101697.00;;;27.22;41.99
21706;BME280;11014;53.076;18.208;2022-07-19T09:51:48;101699.75;;;27.22;41.95
21706;BME280;11014;53.076;18.208;2022-07-19T09:54:18;101694.00;;;27.32;41.92
21706;BME280;11014;53.076;18.208;2022-07-19T09:56:47;101685.34;;;27.25;41.84
21706;BME280;11014;53.076;18.208;2022-07-19T09:59:18;101687.75;;;27.18;41.83
21706;BME280;11014;53.076;18.208;2022-07-19T10:01:48;101678.31;;;27.19;41.99
21706;BME280;11014;53.076;18.208;2022-07-19T10:04:19;101678.31;;;27.19;42.12
21706;BME280;11014;53.076;18.208;2022-07-19T10:06:48;101687.47;;;27.28;41.80
21706;BME280;11014;53.076;18.208;2022-07-19T10:09:19;101684.84;;;27.23;42.02
21706;BME280;11014;53.076;18.208;2022-07-19T10:11:56;101679.47;;;27.18;42.19
21706;BME280;11014;53.076;18.208;2022-07-19T10:14:25;101683.06;;;27.18;42.20
21706;BME280;11014;53.076;18.208;2022-07-19T10:19:31;101678.31;;;27.19;42.12
21706;BME280;11014;53.076;18.208;2022-07-19T10:22:02;101682.72;;;27.20;41.96
21706;BME280;11014;53.076;18.208;2022-07-19T10:27:44;101681.28;;;27.22;42.09
21706;BME280;11014;53.076;18.208;2022-07-19T10:32:43;101661.97;;;27.22;41.73
21706;BME280;11014;53.076;18.208;2022-07-19T10:38:10;101665.53;;;27.23;41.98
21706;BME280;11014;53.076;18.208;2022-07-19T10:43:19;101662.78;;;27.23;41.69
21706;BME280;11014;53.076;18.208;2022-07-19T10:48:47;101666.03;;;27.25;41.91
21706;BME280;11014;53.076;18.208;2022-07-19T10:51:36;101650.63;;;27.24;41.62
21706;BME280;11014;53.076;18.208;2022-07-19T10:54:08;101660.50;;;27.25;41.76
21706;BME280;11014;53.076;18.208;2022-07-19T10:56:40;101656.94;;;27.24;41.65
21706;BME280;11014;53.076;18.208;2022-07-19T10:59:34;101655.81;;;27.25;41.72
21706;BME280;11014;53.076;18.208;2022-07-19T11:02:03;101635.69;;;27.25;41.52
21706;BME280;11014;53.076;18.208;2022-07-19T11:04:53;101632.94;;;27.25;41.46
21706;BME280;11014;53.076;18.208;2022-07-19T11:07:22;101641.19;;;27.25;41.65
21706;BME280;11014;53.076;18.208;2022-07-19T11:09:57;101633.75;;;27.25;41.74
21706;BME280;11014;53.076;18.208;2022-07-19T11:12:31;101635.38;;;27.26;41.73
21706;BME280;11014;53.076;18.208;2022-07-19T11:15:05;101637.31;;;27.26;41.44
21706;BME280;11014;53.076;18.208;2022-07-19T11:18:03;101648.84;;;27.28;41.77
21706;BME280;11014;53.076;18.208;2022-07-19T11:20:34;101641.72;;;27.27;41.42
21706;BME280;11014;53.076;18.208;2022-07-19T11:23:03;101629.53;;;27.28;41.71
21706;BME280;11014;53.076;18.208;2022-07-19T11:25:35;101632.28;;;27.28;41.67
21706;BME280;11014;53.076;18.208;2022-07-19T11:28:05;101624.00;;;27.28;41.77
21706;BME280;11014;53.076;18.208;2022-07-19T11:30:34;101631.16;;;27.29;41.46
21706;BME280;11014;53.076;18.208;2022-07-19T11:33:05;101628.41;;;27.29;41.83
21706;BME280;11014;53.076;18.208;2022-07-19T11:35:38;101623.72;;;27.29;41.65
21706;BME280;11014;53.076;18.208;2022-07-19T11:38:07;101626.47;;;27.29;41.52
21706;BME280;11014;53.076;18.208;2022-07-19T11:40:36;101623.72;;;27.29;41.76
21706;BME280;11014;53.076;18.208;2022-07-19T11:43:06;101618.97;;;27.30;41.72
21706;BME280;11014;53.076;18.208;2022-07-19T11:45:48;101620.63;;;27.31;41.71
21706;BME280;11014;53.076;18.208;2022-07-19T11:48:25;101614.28;;;27.30;41.63
21706;BME280;11014;53.076;18.208;2022-07-19T11:51:04;101607.66;;;27.31;41.60
21706;BME280;11014;53.076;18.208;2022-07-19T11:53:35;101605.72;;;27.32;41.34
21706;BME280;11014;53.076;18.208;2022-07-19T11:56:05;101611.22;;;27.32;41.48
21706;BME280;11014;53.076;18.208;2022-07-19T11:58:34;101606.81;;;27.31;41.33
21706;BME280;11014;53.076;18.208;2022-07-19T12:01:04;101609.59;;;27.31;41.57
21706;BME280;11014;53.076;18.208;2022-07-19T12:03:33;101617.22;;;27.34;41.38
21706;BME280;11014;53.076;18.208;2022-07-19T12:06:07;101600.19;;;27.32;41.25
21706;BME280;11014;53.076;18.208;2022-07-19T12:08:42;101612.84;;;27.33;41.38
21706;BME280;11014;53.076;18.208;2022-07-19T12:13:49;101610.06;;;27.33;41.44
21706;BME280;11014;53.076;18.208;2022-07-19T12:16:20;101610.06;;;27.33;41.48
21706;BME280;11014;53.076;18.208;2022-07-19T12:18:55;101608.13;;;27.33;41.48
21706;BME280;11014;53.076;18.208;2022-07-19T12:21:28;101612.53;;;27.34;41.51
21706;BME280;11014;53.076;18.208;2022-07-19T12:24:25;101604.25;;;27.34;41.23
21706;BME280;11014;53.076;18.208;2022-07-19T12:29:31;101601.78;;;27.33;41.33
21706;BME280;11014;53.076;18.208;2022-07-19T12:32:06;101605.06;;;27.35;41.37
21706;BME280;11014;53.076;18.208;2022-07-19T12:35:02;101609.44;;;27.36;41.48
21706;BME280;11014;53.076;18.208;2022-07-19T12:37:34;101601.97;;;27.36;41.46
21706;BME280;11014;53.076;18.208;2022-07-19T12:40:10;101598.72;;;27.34;41.42
21706;BME280;11014;53.076;18.208;2022-07-19T12:42:53;101605.06;;;27.35;41.47
21706;BME280;11014;53.076;18.208;2022-07-19T12:45:34;101600.34;;;27.35;41.26
21706;BME280;11014;53.076;18.208;2022-07-19T12:48:03;101595.66;;;27.36;41.28
21706;BME280;11014;53.076;18.208;2022-07-19T12:50:35;101599.56;;;27.35;41.43
21706;BME280;11014;53.076;18.208;2022-07-19T12:53:06;101595.66;;;27.36;41.42
21706;BME280;11014;53.076;18.208;2022-07-19T12:55:36;101587.84;;;27.38;41.10
21706;BME280;11014;53.076;18.208;2022-07-19T12:58:07;101584.59;;;27.36;41.27
21706;BME280;11014;53.076;18.208;2022-07-19T13:00:37;101593.38;;;27.38;41.34
21706;BME280;11014;53.076;18.208;2022-07-19T13:03:06;101589.81;;;27.37;41.48
21706;BME280;11014;53.076;18.208;2022-07-19T13:05:35;101595.00;;;27.39;41.34
21706;BME280;11014;53.076;18.208;2022-07-19T13:08:03;101592.25;;;27.39;41.20
21706;BME280;11014;53.076;18.208;2022-07-19T13:10:32;101595.53;;;27.41;41.21
21706;BME280;11014;53.076;18.208;2022-07-19T13:13:00;101591.13;;;27.40;41.08
21706;BME280;11014;53.076;18.208;2022-07-19T13:15:29;101592.75;;;27.41;41.28
21706;BME280;11014;53.076;18.208;2022-07-19T13:17:57;101588.88;;;27.42;41.32